sensor_id;sensor_type;location;lat;lon;timestamp;temperature;humidity
9446;DHT22;4761;49.490;10.908;2023-05-10T00:01:33;20.80;50.10
9446;DHT22;4761;49.490;10.908;2023-05-10T00:03:59;20.80;50.10
9446;DHT22;4761;49.490;10.908;2023-05-10T00:06:24;20.80;50.30
9446;DHT22;4761;49.490;10.908;2023-05-10T00:08:50;20.80;50.40
9446;DHT22;4761;49.490;10.908;2023-05-10T00:11:15;20.80;50.40
9446;DHT22;4761;49.490;10.908;2023-05-10T00:13:41;20.80;50.40
9446;DHT22;4761;49.490;10.908;2023-05-10T00:16:07;20.80;50.40
9446;DHT22;4761;49.490;10.908;2023-05-10T00:18:32;20.80;50.50
9446;DHT22;4761;49.490;10.908;2023-05-10T00:20:58;20.80;50.50
9446;DHT22;4761;49.490;10.908;2023-05-10T00:23:23;20.80;50.70
9446;DHT22;4761;49.490;10.908;2023-05-10T00:25:48;20.70;50.70
9446;DHT22;4761;49.490;10.908;2023-05-10T00:28:14;20.80;50.80
9446;DHT22;4761;49.490;10.908;2023-05-10T00:30:40;20.80;50.80
9446;DHT22;4761;49.490;10.908;2023-05-10T00:33:05;20.80;51.00
9446;DHT22;4761;49.490;10.908;2023-05-10T00:35:31;20.80;51.00
9446;DHT22;4761;49.490;10.908;2023-05-10T00:37:56;20.80;51.10
9446;DHT22;4761;49.490;10.908;2023-05-10T00:40:22;20.80;51.20
9446;DHT22;4761;49.490;10.908;2023-05-10T00:42:47;20.80;51.30
9446;DHT22;4761;49.490;10.908;2023-05-10T00:45:13;20.80;51.30
9446;DHT22;4761;49.490;10.908;2023-05-10T00:47:39;20.80;51.50
9446;DHT22;4761;49.490;10.908;2023-05-10T00:50:05;20.80;51.50
9446;DHT22;4761;49.490;10.908;2023-05-10T00:52:31;20.80;51.50
9446;DHT22;4761;49.490;10.908;2023-05-10T00:54:57;20.80;51.70
9446;DHT22;4761;49.490;10.908;2023-05-10T00:57:24;20.80;51.60
9446;DHT22;4761;49.490;10.908;2023-05-10T00:59:50;20.80;51.70
9446;DHT22;4761;49.490;10.908;2023-05-10T01:02:16;20.70;51.70
9446;DHT22;4761;49.490;10.908;2023-05-10T01:04:43;20.70;51.80
9446;DHT22;4761;49.490;10.908;2023-05-10T01:07:08;20.70;51.90
9446;DHT22;4761;49.490;10.908;2023-05-10T01:09:34;20.80;52.00
9446;DHT22;4761;49.490;10.908;2023-05-10T01:12:00;20.70;52.00
9446;DHT22;4761;49.490;10.908;2023-05-10T01:14:27;20.70;52.30
9446;DHT22;4761;49.490;10.908;2023-05-10T01:16:53;20.70;52.20
9446;DHT22;4761;49.490;10.908;2023-05-10T01:19:22;20.70;52.30
9446;DHT22;4761;49.490;10.908;2023-05-10T01:21:50;20.70;52.30
9446;DHT22;4761;49.490;10.908;2023-05-10T01:30:01;20.70;52.40
9446;DHT22;4761;49.490;10.908;2023-05-10T01:32:35;20.70;52.50
9446;DHT22;4761;49.490;10.908;2023-05-10T01:35:19;20.70;52.50
9446;DHT22;4761;49.490;10.908;2023-05-10T01:40:37;20.70;52.60
9446;DHT22;4761;49.490;10.908;2023-05-10T01:43:14;20.70;52.50
9446;DHT22;4761;49.490;10.908;2023-05-10T01:45:47;20.70;52.70
9446;DHT22;4761;49.490;10.908;2023-05-10T01:48:16;20.70;52.80
9446;DHT22;4761;49.490;10.908;2023-05-10T01:50:45;20.70;52.80
9446;DHT22;4761;49.490;10.908;2023-05-10T01:53:13;20.70;52.80
9446;DHT22;4761;49.490;10.908;2023-05-10T01:55:48;20.70;52.90
9446;DHT22;4761;49.490;10.908;2023-05-10T01:58:25;20.70;53.10
9446;DHT22;4761;49.490;10.908;2023-05-10T02:00:53;20.70;53.00
9446;DHT22;4761;49.490;10.908;2023-05-10T02:03:22;20.70;53.00
9446;DHT22;4761;49.490;10.908;2023-05-10T02:05:49;20.70;53.00
9446;DHT22;4761;49.490;10.908;2023-05-10T02:08:17;20.70;53.10
9446;DHT22;4761;49.490;10.908;2023-05-10T02:10:45;20.70;53.10
9446;DHT22;4761;49.490;10.908;2023-05-10T02:13:11;20.70;53.10
9446;DHT22;4761;49.490;10.908;2023-05-10T02:15:39;20.60;53.10
9446;DHT22;4761;49.490;10.908;2023-05-10T02:18:06;20.70;53.30
9446;DHT22;4761;49.490;10.908;2023-05-10T02:20:32;20.70;53.20
9446;DHT22;4761;49.490;10.908;2023-05-10T02:22:58;20.70;53.30
9446;DHT22;4761;49.490;10.908;2023-05-10T02:25:25;20.70;53.20
9446;DHT22;4761;49.490;10.908;2023-05-10T02:27:53;20.70;53.30
9446;DHT22;4761;49.490;10.908;2023-05-10T02:30:20;20.70;53.40
9446;DHT22;4761;49.490;10.908;2023-05-10T02:32:47;20.70;53.40
9446;DHT22;4761;49.490;10.908;2023-05-10T02:35:14;20.70;53.40
9446;DHT22;4761;49.490;10.908;2023-05-10T02:37:41;20.60;53.30
9446;DHT22;4761;49.490;10.908;2023-05-10T02:40:07;20.60;53.30
9446;DHT22;4761;49.490;10.908;2023-05-10T02:42:37;20.70;53.40
9446;DHT22;4761;49.490;10.908;2023-05-10T02:45:07;20.60;53.40
9446;DHT22;4761;49.490;10.908;2023-05-10T02:47:34;20.70;53.40
9446;DHT22;4761;49.490;10.908;2023-05-10T02:49:59;20.70;53.50
9446;DHT22;4761;49.490;10.908;2023-05-10T02:52:29;20.70;53.60
9446;DHT22;4761;49.490;10.908;2023-05-10T02:55:00;20.70;53.60
9446;DHT22;4761;49.490;10.908;2023-05-10T02:57:28;20.70;53.70
9446;DHT22;4761;49.490;10.908;2023-05-10T02:59:54;20.70;53.70
9446;DHT22;4761;49.490;10.908;2023-05-10T03:02:21;20.60;53.60
9446;DHT22;4761;49.490;10.908;2023-05-10T03:04:46;20.60;53.60
9446;DHT22;4761;49.490;10.908;2023-05-10T03:07:12;20.60;53.70
9446;DHT22;4761;49.490;10.908;2023-05-10T03:09:38;20.60;53.60
9446;DHT22;4761;49.490;10.908;2023-05-10T03:14:58;20.70;53.70
9446;DHT22;4761;49.490;10.908;2023-05-10T03:17:36;20.60;53.70
9446;DHT22;4761;49.490;10.908;2023-05-10T03:20:10;20.60;53.70
9446;DHT22;4761;49.490;10.908;2023-05-10T03:22:47;20.60;53.80
9446;DHT22;4761;49.490;10.908;2023-05-10T03:25:15;20.70;53.80
9446;DHT22;4761;49.490;10.908;2023-05-10T03:27:43;20.60;53.80
9446;DHT22;4761;49.490;10.908;2023-05-10T03:30:11;20.70;53.90
9446;DHT22;4761;49.490;10.908;2023-05-10T03:32:37;20.70;53.90
9446;DHT22;4761;49.490;10.908;2023-05-10T03:35:10;20.70;53.80
9446;DHT22;4761;49.490;10.908;2023-05-10T03:37:36;20.70;53.80
9446;DHT22;4761;49.490;10.908;2023-05-10T03:40:03;20.70;53.70
9446;DHT22;4761;49.490;10.908;2023-05-10T03:42:29;20.70;53.60
9446;DHT22;4761;49.490;10.908;2023-05-10T03:44:55;20.70;53.60
9446;DHT22;4761;49.490;10.908;2023-05-10T03:47:20;20.70;53.60
9446;DHT22;4761;49.490;10.908;2023-05-10T03:49:46;20.70;53.60
9446;DHT22;4761;49.490;10.908;2023-05-10T03:52:11;20.70;53.60
9446;DHT22;4761;49.490;10.908;2023-05-10T03:54:37;20.70;53.60
9446;DHT22;4761;49.490;10.908;2023-05-10T03:57:03;20.70;53.70
9446;DHT22;4761;49.490;10.908;2023-05-10T03:59:29;20.70;53.70
9446;DHT22;4761;49.490;10.908;2023-05-10T04:01:55;20.70;53.70
9446;DHT22;4761;49.490;10.908;2023-05-10T04:04:20;20.70;53.70
9446;DHT22;4761;49.490;10.908;2023-05-10T04:06:47;20.70;54.20
9446;DHT22;4761;49.490;10.908;2023-05-10T04:09:12;20.70;53.70
9446;DHT22;4761;49.490;10.908;2023-05-10T04:11:41;20.70;53.70
9446;DHT22;4761;49.490;10.908;2023-05-10T04:14:09;20.70;53.70
9446;DHT22;4761;49.490;10.908;2023-05-10T04:16:35;20.70;53.70
9446;DHT22;4761;49.490;10.908;2023-05-10T04:19:00;20.70;53.70
9446;DHT22;4761;49.490;10.908;2023-05-10T04:21:26;20.70;53.70
9446;DHT22;4761;49.490;10.908;2023-05-10T04:23:51;20.70;53.70
9446;DHT22;4761;49.490;10.908;2023-05-10T04:26:17;20.70;53.70
9446;DHT22;4761;49.490;10.908;2023-05-10T04:28:42;20.70;53.70
9446;DHT22;4761;49.490;10.908;2023-05-10T04:31:09;20.70;53.70
9446;DHT22;4761;49.490;10.908;2023-05-10T04:33:35;20.70;53.70
9446;DHT22;4761;49.490;10.908;2023-05-10T04:36:01;20.70;53.70
9446;DHT22;4761;49.490;10.908;2023-05-10T04:38:28;20.70;53.80
9446;DHT22;4761;49.490;10.908;2023-05-10T04:40:53;20.70;53.70
9446;DHT22;4761;49.490;10.908;2023-05-10T04:43:19;20.60;53.70
9446;DHT22;4761;49.490;10.908;2023-05-10T04:45:45;20.70;53.80
9446;DHT22;4761;49.490;10.908;2023-05-10T04:48:11;20.60;53.70
9446;DHT22;4761;49.490;10.908;2023-05-10T04:50:36;20.70;53.80
9446;DHT22;4761;49.490;10.908;2023-05-10T04:53:02;20.70;53.90
9446;DHT22;4761;49.490;10.908;2023-05-10T04:55:27;20.60;53.70
9446;DHT22;4761;49.490;10.908;2023-05-10T04:57:53;20.60;53.70
9446;DHT22;4761;49.490;10.908;2023-05-10T05:00:22;20.70;53.80
9446;DHT22;4761;49.490;10.908;2023-05-10T05:02:47;20.70;53.80
9446;DHT22;4761;49.490;10.908;2023-05-10T05:05:13;20.70;53.80
9446;DHT22;4761;49.490;10.908;2023-05-10T05:07:39;20.60;53.70
9446;DHT22;4761;49.490;10.908;2023-05-10T05:10:06;20.60;53.70
9446;DHT22;4761;49.490;10.908;2023-05-10T05:12:32;20.60;53.70
9446;DHT22;4761;49.490;10.908;2023-05-10T05:14:57;20.60;53.80
9446;DHT22;4761;49.490;10.908;2023-05-10T05:17:23;20.60;53.70
9446;DHT22;4761;49.490;10.908;2023-05-10T05:19:48;20.60;53.80
9446;DHT22;4761;49.490;10.908;2023-05-10T05:22:14;20.60;53.80
9446;DHT22;4761;49.490;10.908;2023-05-10T05:24:40;20.60;53.80
9446;DHT22;4761;49.490;10.908;2023-05-10T05:27:05;20.60;53.70
9446;DHT22;4761;49.490;10.908;2023-05-10T05:29:31;20.60;53.80
9446;DHT22;4761;49.490;10.908;2023-05-10T05:31:57;20.60;53.80
9446;DHT22;4761;49.490;10.908;2023-05-10T05:34:22;20.60;53.80
9446;DHT22;4761;49.490;10.908;2023-05-10T05:36:49;20.60;53.80
9446;DHT22;4761;49.490;10.908;2023-05-10T05:39:15;20.60;53.90
9446;DHT22;4761;49.490;10.908;2023-05-10T05:41:40;20.60;53.80
9446;DHT22;4761;49.490;10.908;2023-05-10T05:44:06;20.50;53.70
9446;DHT22;4761;49.490;10.908;2023-05-10T05:46:31;20.50;53.70
9446;DHT22;4761;49.490;10.908;2023-05-10T05:48:57;20.60;53.90
9446;DHT22;4761;49.490;10.908;2023-05-10T05:51:22;20.60;53.80
9446;DHT22;4761;49.490;10.908;2023-05-10T05:53:48;20.50;53.70
9446;DHT22;4761;49.490;10.908;2023-05-10T05:56:13;20.60;53.80
9446;DHT22;4761;49.490;10.908;2023-05-10T05:58:39;20.60;53.80
9446;DHT22;4761;49.490;10.908;2023-05-10T06:01:04;20.60;53.80
9446;DHT22;4761;49.490;10.908;2023-05-10T06:03:30;20.60;53.80
9446;DHT22;4761;49.490;10.908;2023-05-10T06:05:55;20.60;53.80
9446;DHT22;4761;49.490;10.908;2023-05-10T06:08:21;20.60;53.80
9446;DHT22;4761;49.490;10.908;2023-05-10T06:10:47;20.60;53.90
9446;DHT22;4761;49.490;10.908;2023-05-10T06:13:13;20.60;53.90
9446;DHT22;4761;49.490;10.908;2023-05-10T06:15:39;20.60;53.90
9446;DHT22;4761;49.490;10.908;2023-05-10T06:18:04;20.60;53.90
9446;DHT22;4761;49.490;10.908;2023-05-10T06:20:31;20.50;53.80
9446;DHT22;4761;49.490;10.908;2023-05-10T06:22:59;20.50;53.90
9446;DHT22;4761;49.490;10.908;2023-05-10T06:25:25;20.60;54.00
9446;DHT22;4761;49.490;10.908;2023-05-10T06:27:50;20.50;53.90
9446;DHT22;4761;49.490;10.908;2023-05-10T06:30:20;20.60;54.00
9446;DHT22;4761;49.490;10.908;2023-05-10T06:32:48;20.60;54.00
9446;DHT22;4761;49.490;10.908;2023-05-10T06:35:13;20.60;54.00
9446;DHT22;4761;49.490;10.908;2023-05-10T06:37:39;20.60;54.10
9446;DHT22;4761;49.490;10.908;2023-05-10T06:40:06;20.60;54.10
9446;DHT22;4761;49.490;10.908;2023-05-10T06:42:31;20.60;54.10
9446;DHT22;4761;49.490;10.908;2023-05-10T06:44:57;20.60;54.10
9446;DHT22;4761;49.490;10.908;2023-05-10T06:47:22;20.60;54.10
9446;DHT22;4761;49.490;10.908;2023-05-10T06:49:48;20.60;54.10
9446;DHT22;4761;49.490;10.908;2023-05-10T06:52:13;20.60;54.10
9446;DHT22;4761;49.490;10.908;2023-05-10T06:54:39;20.60;54.20
9446;DHT22;4761;49.490;10.908;2023-05-10T06:57:04;20.60;54.20
9446;DHT22;4761;49.490;10.908;2023-05-10T06:59:30;20.60;54.10
9446;DHT22;4761;49.490;10.908;2023-05-10T07:01:56;20.60;54.20
9446;DHT22;4761;49.490;10.908;2023-05-10T07:04:22;20.60;54.20
9446;DHT22;4761;49.490;10.908;2023-05-10T07:06:47;20.60;54.20
9446;DHT22;4761;49.490;10.908;2023-05-10T07:09:14;20.60;54.20
9446;DHT22;4761;49.490;10.908;2023-05-10T07:11:41;20.60;54.20
9446;DHT22;4761;49.490;10.908;2023-05-10T07:14:06;20.50;54.00
9446;DHT22;4761;49.490;10.908;2023-05-10T07:16:32;20.50;53.50
9446;DHT22;4761;49.490;10.908;2023-05-10T07:18:57;20.50;53.20
9446;DHT22;4761;49.490;10.908;2023-05-10T07:21:23;20.50;53.30
9446;DHT22;4761;49.490;10.908;2023-05-10T07:23:49;20.50;53.30
9446;DHT22;4761;49.490;10.908;2023-05-10T07:26:15;20.60;53.40
9446;DHT22;4761;49.490;10.908;2023-05-10T07:28:41;20.60;53.30
9446;DHT22;4761;49.490;10.908;2023-05-10T07:31:06;20.60;53.40
9446;DHT22;4761;49.490;10.908;2023-05-10T07:33:32;20.60;53.30
9446;DHT22;4761;49.490;10.908;2023-05-10T07:35:57;20.60;53.40
9446;DHT22;4761;49.490;10.908;2023-05-10T07:38:23;20.60;53.40
9446;DHT22;4761;49.490;10.908;2023-05-10T07:40:48;20.60;53.50
9446;DHT22;4761;49.490;10.908;2023-05-10T07:43:14;20.60;53.50
9446;DHT22;4761;49.490;10.908;2023-05-10T07:45:39;20.60;53.60
9446;DHT22;4761;49.490;10.908;2023-05-10T07:48:05;20.60;53.70
9446;DHT22;4761;49.490;10.908;2023-05-10T07:50:30;20.60;53.60
9446;DHT22;4761;49.490;10.908;2023-05-10T07:52:56;20.60;53.60
9446;DHT22;4761;49.490;10.908;2023-05-10T07:55:22;20.70;53.80
9446;DHT22;4761;49.490;10.908;2023-05-10T07:57:47;20.60;53.70
9446;DHT22;4761;49.490;10.908;2023-05-10T08:00:13;20.60;53.80
9446;DHT22;4761;49.490;10.908;2023-05-10T08:02:41;20.60;53.80
9446;DHT22;4761;49.490;10.908;2023-05-10T08:05:07;20.60;53.80
9446;DHT22;4761;49.490;10.908;2023-05-10T08:07:33;20.60;53.90
9446;DHT22;4761;49.490;10.908;2023-05-10T08:09:58;20.60;53.80
9446;DHT22;4761;49.490;10.908;2023-05-10T08:12:24;20.70;54.00
9446;DHT22;4761;49.490;10.908;2023-05-10T08:14:49;20.60;54.50
9446;DHT22;4761;49.490;10.908;2023-05-10T08:17:15;20.60;54.00
9446;DHT22;4761;49.490;10.908;2023-05-10T08:19:41;20.70;54.00
9446;DHT22;4761;49.490;10.908;2023-05-10T08:22:06;20.60;54.00
9446;DHT22;4761;49.490;10.908;2023-05-10T08:24:32;20.60;54.00
9446;DHT22;4761;49.490;10.908;2023-05-10T08:26:59;20.70;54.20
9446;DHT22;4761;49.490;10.908;2023-05-10T08:29:26;20.70;54.10
9446;DHT22;4761;49.490;10.908;2023-05-10T08:31:51;20.70;54.20
9446;DHT22;4761;49.490;10.908;2023-05-10T08:34:17;20.70;54.20
9446;DHT22;4761;49.490;10.908;2023-05-10T08:36:42;20.70;54.10
9446;DHT22;4761;49.490;10.908;2023-05-10T08:39:07;20.70;54.10
9446;DHT22;4761;49.490;10.908;2023-05-10T08:41:34;20.80;54.10
9446;DHT22;4761;49.490;10.908;2023-05-10T08:44:04;20.80;54.00
9446;DHT22;4761;49.490;10.908;2023-05-10T08:46:31;20.80;53.90
9446;DHT22;4761;49.490;10.908;2023-05-10T08:49:00;20.80;53.80
9446;DHT22;4761;49.490;10.908;2023-05-10T08:51:27;20.80;53.80
9446;DHT22;4761;49.490;10.908;2023-05-10T08:53:58;20.80;53.80
9446;DHT22;4761;49.490;10.908;2023-05-10T08:56:24;20.90;53.80
9446;DHT22;4761;49.490;10.908;2023-05-10T08:58:50;20.80;53.80
9446;DHT22;4761;49.490;10.908;2023-05-10T09:01:16;20.90;53.80
9446;DHT22;4761;49.490;10.908;2023-05-10T09:03:43;20.90;53.90
9446;DHT22;4761;49.490;10.908;2023-05-10T09:06:12;20.80;53.80
9446;DHT22;4761;49.490;10.908;2023-05-10T09:08:38;20.80;53.80
9446;DHT22;4761;49.490;10.908;2023-05-10T09:11:05;20.80;53.90
9446;DHT22;4761;49.490;10.908;2023-05-10T09:13:31;20.80;53.90
9446;DHT22;4761;49.490;10.908;2023-05-10T09:15:57;20.80;54.00
9446;DHT22;4761;49.490;10.908;2023-05-10T09:18:23;20.80;54.00
9446;DHT22;4761;49.490;10.908;2023-05-10T09:20:48;20.80;54.10
9446;DHT22;4761;49.490;10.908;2023-05-10T09:23:14;20.80;54.10
9446;DHT22;4761;49.490;10.908;2023-05-10T09:25:41;20.80;54.10
9446;DHT22;4761;49.490;10.908;2023-05-10T09:28:07;20.80;54.20
9446;DHT22;4761;49.490;10.908;2023-05-10T09:30:34;20.80;54.20
9446;DHT22;4761;49.490;10.908;2023-05-10T09:33:00;20.80;54.20
9446;DHT22;4761;49.490;10.908;2023-05-10T09:35:31;20.80;54.20
9446;DHT22;4761;49.490;10.908;2023-05-10T09:38:00;20.80;54.20
9446;DHT22;4761;49.490;10.908;2023-05-10T09:40:28;20.80;54.20
9446;DHT22;4761;49.490;10.908;2023-05-10T09:42:56;20.90;54.40
9446;DHT22;4761;49.490;10.908;2023-05-10T09:45:24;20.90;54.40
9446;DHT22;4761;49.490;10.908;2023-05-10T09:47:50;20.80;54.40
9446;DHT22;4761;49.490;10.908;2023-05-10T09:50:16;20.80;54.10
9446;DHT22;4761;49.490;10.908;2023-05-10T09:52:54;20.80;53.80
9446;DHT22;4761;49.490;10.908;2023-05-10T09:55:23;20.80;53.70
9446;DHT22;4761;49.490;10.908;2023-05-10T09:57:49;20.90;53.80
9446;DHT22;4761;49.490;10.908;2023-05-10T10:00:23;20.80;53.80
9446;DHT22;4761;49.490;10.908;2023-05-10T10:02:56;20.80;54.20
9446;DHT22;4761;49.490;10.908;2023-05-10T10:05:39;20.80;53.90
9446;DHT22;4761;49.490;10.908;2023-05-10T10:08:06;20.80;53.90
9446;DHT22;4761;49.490;10.908;2023-05-10T10:10:32;20.80;53.30
9446;DHT22;4761;49.490;10.908;2023-05-10T10:12:58;20.90;53.50
9446;DHT22;4761;49.490;10.908;2023-05-10T10:15:25;20.80;53.50
9446;DHT22;4761;49.490;10.908;2023-05-10T10:17:52;20.80;54.40
9446;DHT22;4761;49.490;10.908;2023-05-10T10:20:19;20.80;53.90
9446;DHT22;4761;49.490;10.908;2023-05-10T10:22:45;20.80;53.70
9446;DHT22;4761;49.490;10.908;2023-05-10T10:25:14;20.80;53.60
9446;DHT22;4761;49.490;10.908;2023-05-10T10:35:32;20.80;54.00
9446;DHT22;4761;49.490;10.908;2023-05-10T10:37:58;20.90;54.20
9446;DHT22;4761;49.490;10.908;2023-05-10T10:40:31;20.90;54.30
9446;DHT22;4761;49.490;10.908;2023-05-10T10:42:58;20.80;54.30
9446;DHT22;4761;49.490;10.908;2023-05-10T10:45:43;20.80;54.40
9446;DHT22;4761;49.490;10.908;2023-05-10T10:48:23;20.80;54.40
9446;DHT22;4761;49.490;10.908;2023-05-10T10:50:57;20.80;54.60
9446;DHT22;4761;49.490;10.908;2023-05-10T10:53:26;20.80;54.70
9446;DHT22;4761;49.490;10.908;2023-05-10T10:56:05;20.80;54.70
9446;DHT22;4761;49.490;10.908;2023-05-10T10:58:33;20.80;54.80
9446;DHT22;4761;49.490;10.908;2023-05-10T11:01:19;20.80;54.90
9446;DHT22;4761;49.490;10.908;2023-05-10T11:06:35;20.80;55.00
9446;DHT22;4761;49.490;10.908;2023-05-10T11:09:11;20.80;55.10
9446;DHT22;4761;49.490;10.908;2023-05-10T11:11:48;20.80;55.10
9446;DHT22;4761;49.490;10.908;2023-05-10T11:14:14;20.80;55.20
9446;DHT22;4761;49.490;10.908;2023-05-10T11:16:44;20.80;55.20
9446;DHT22;4761;49.490;10.908;2023-05-10T11:19:11;20.80;55.30
9446;DHT22;4761;49.490;10.908;2023-05-10T11:21:49;20.80;55.30
9446;DHT22;4761;49.490;10.908;2023-05-10T11:24:16;20.80;55.30
9446;DHT22;4761;49.490;10.908;2023-05-10T11:26:42;20.80;55.50
9446;DHT22;4761;49.490;10.908;2023-05-10T11:29:08;20.80;55.50
9446;DHT22;4761;49.490;10.908;2023-05-10T11:31:33;20.80;55.60
9446;DHT22;4761;49.490;10.908;2023-05-10T11:34:00;20.80;55.60
9446;DHT22;4761;49.490;10.908;2023-05-10T11:36:27;20.80;55.70
9446;DHT22;4761;49.490;10.908;2023-05-10T11:38:55;20.80;55.80
9446;DHT22;4761;49.490;10.908;2023-05-10T11:41:22;20.80;55.80
9446;DHT22;4761;49.490;10.908;2023-05-10T11:43:53;20.80;56.00
9446;DHT22;4761;49.490;10.908;2023-05-10T11:46:20;20.70;55.90
9446;DHT22;4761;49.490;10.908;2023-05-10T11:48:49;20.80;56.10
9446;DHT22;4761;49.490;10.908;2023-05-10T11:51:19;20.70;56.20
9446;DHT22;4761;49.490;10.908;2023-05-10T11:53:45;20.70;56.10
9446;DHT22;4761;49.490;10.908;2023-05-10T11:56:11;20.70;56.20
9446;DHT22;4761;49.490;10.908;2023-05-10T11:58:38;20.70;56.20
9446;DHT22;4761;49.490;10.908;2023-05-10T12:01:05;20.70;56.10
9446;DHT22;4761;49.490;10.908;2023-05-10T12:03:32;20.70;56.00
9446;DHT22;4761;49.490;10.908;2023-05-10T12:05:58;20.70;55.60
9446;DHT22;4761;49.490;10.908;2023-05-10T12:08:25;20.70;55.70
9446;DHT22;4761;49.490;10.908;2023-05-10T12:10:51;20.70;55.40
9446;DHT22;4761;49.490;10.908;2023-05-10T12:13:18;20.70;55.20
9446;DHT22;4761;49.490;10.908;2023-05-10T12:15:44;20.70;55.20
9446;DHT22;4761;49.490;10.908;2023-05-10T12:18:11;20.70;55.10
9446;DHT22;4761;49.490;10.908;2023-05-10T12:20:37;20.70;55.30
9446;DHT22;4761;49.490;10.908;2023-05-10T12:23:03;20.80;55.50
9446;DHT22;4761;49.490;10.908;2023-05-10T12:25:36;20.80;55.50
9446;DHT22;4761;49.490;10.908;2023-05-10T12:28:04;20.80;55.70
9446;DHT22;4761;49.490;10.908;2023-05-10T12:30:32;20.80;55.80
9446;DHT22;4761;49.490;10.908;2023-05-10T12:33:17;20.80;55.80
9446;DHT22;4761;49.490;10.908;2023-05-10T12:35:51;20.80;55.80
9446;DHT22;4761;49.490;10.908;2023-05-10T12:38:36;20.80;55.70
9446;DHT22;4761;49.490;10.908;2023-05-10T12:41:08;20.80;55.90
9446;DHT22;4761;49.490;10.908;2023-05-10T12:43:35;20.80;56.00
9446;DHT22;4761;49.490;10.908;2023-05-10T12:46:11;20.90;56.10
9446;DHT22;4761;49.490;10.908;2023-05-10T12:48:38;20.80;56.20
9446;DHT22;4761;49.490;10.908;2023-05-10T12:51:05;20.90;56.30
9446;DHT22;4761;49.490;10.908;2023-05-10T12:53:33;20.80;56.30
9446;DHT22;4761;49.490;10.908;2023-05-10T12:55:59;20.80;56.30
9446;DHT22;4761;49.490;10.908;2023-05-10T12:58:25;20.80;56.30
9446;DHT22;4761;49.490;10.908;2023-05-10T13:00:50;20.90;56.40
9446;DHT22;4761;49.490;10.908;2023-05-10T13:03:17;20.80;56.30
9446;DHT22;4761;49.490;10.908;2023-05-10T13:05:42;20.80;56.50
9446;DHT22;4761;49.490;10.908;2023-05-10T13:08:08;20.90;56.70
9446;DHT22;4761;49.490;10.908;2023-05-10T13:10:33;20.80;56.70
9446;DHT22;4761;49.490;10.908;2023-05-10T13:12:59;20.80;56.70
9446;DHT22;4761;49.490;10.908;2023-05-10T13:15:25;20.90;56.90
9446;DHT22;4761;49.490;10.908;2023-05-10T13:17:51;20.80;56.80
9446;DHT22;4761;49.490;10.908;2023-05-10T13:20:17;20.80;56.90
9446;DHT22;4761;49.490;10.908;2023-05-10T13:22:43;20.70;55.50
9446;DHT22;4761;49.490;10.908;2023-05-10T13:25:09;20.60;53.70
9446;DHT22;4761;49.490;10.908;2023-05-10T13:27:35;20.50;50.80
9446;DHT22;4761;49.490;10.908;2023-05-10T13:30:01;20.50;49.00
9446;DHT22;4761;49.490;10.908;2023-05-10T13:32:28;20.50;48.70
9446;DHT22;4761;49.490;10.908;2023-05-10T13:34:54;20.40;48.20
9446;DHT22;4761;49.490;10.908;2023-05-10T13:37:20;20.40;48.10
9446;DHT22;4761;49.490;10.908;2023-05-10T13:39:45;20.40;47.90
9446;DHT22;4761;49.490;10.908;2023-05-10T13:42:11;20.40;48.10
9446;DHT22;4761;49.490;10.908;2023-05-10T13:44:36;20.40;50.00
9446;DHT22;4761;49.490;10.908;2023-05-10T13:47:04;20.50;50.20
9446;DHT22;4761;49.490;10.908;2023-05-10T13:49:29;20.60;50.40
9446;DHT22;4761;49.490;10.908;2023-05-10T13:51:55;20.70;50.60
9446;DHT22;4761;49.490;10.908;2023-05-10T13:54:20;20.70;50.70
9446;DHT22;4761;49.490;10.908;2023-05-10T13:56:47;20.80;51.00
9446;DHT22;4761;49.490;10.908;2023-05-10T13:59:14;20.70;51.50
9446;DHT22;4761;49.490;10.908;2023-05-10T14:01:40;20.80;51.90
9446;DHT22;4761;49.490;10.908;2023-05-10T14:04:06;20.80;52.10
9446;DHT22;4761;49.490;10.908;2023-05-10T14:06:38;20.80;52.30
9446;DHT22;4761;49.490;10.908;2023-05-10T14:09:03;20.80;52.40
9446;DHT22;4761;49.490;10.908;2023-05-10T14:11:29;20.80;52.60
9446;DHT22;4761;49.490;10.908;2023-05-10T14:13:54;20.80;52.80
9446;DHT22;4761;49.490;10.908;2023-05-10T14:16:20;20.80;52.90
9446;DHT22;4761;49.490;10.908;2023-05-10T14:18:46;20.80;53.10
9446;DHT22;4761;49.490;10.908;2023-05-10T14:21:12;20.90;53.30
9446;DHT22;4761;49.490;10.908;2023-05-10T14:23:38;20.80;53.40
9446;DHT22;4761;49.490;10.908;2023-05-10T14:26:03;20.90;53.60
9446;DHT22;4761;49.490;10.908;2023-05-10T14:28:29;20.90;53.80
9446;DHT22;4761;49.490;10.908;2023-05-10T14:30:54;20.80;53.90
9446;DHT22;4761;49.490;10.908;2023-05-10T14:33:20;20.90;54.00
9446;DHT22;4761;49.490;10.908;2023-05-10T14:35:46;20.90;54.20
9446;DHT22;4761;49.490;10.908;2023-05-10T14:38:12;20.90;54.30
9446;DHT22;4761;49.490;10.908;2023-05-10T14:40:38;20.90;54.40
9446;DHT22;4761;49.490;10.908;2023-05-10T14:43:03;20.90;54.40
9446;DHT22;4761;49.490;10.908;2023-05-10T14:45:29;20.90;54.50
9446;DHT22;4761;49.490;10.908;2023-05-10T14:47:54;20.90;54.60
9446;DHT22;4761;49.490;10.908;2023-05-10T14:50:20;20.90;54.80
9446;DHT22;4761;49.490;10.908;2023-05-10T14:52:46;20.90;54.80
9446;DHT22;4761;49.490;10.908;2023-05-10T14:55:11;20.90;54.90
9446;DHT22;4761;49.490;10.908;2023-05-10T14:57:37;20.90;54.90
9446;DHT22;4761;49.490;10.908;2023-05-10T15:00:03;20.90;54.90
9446;DHT22;4761;49.490;10.908;2023-05-10T15:02:30;20.90;55.00
9446;DHT22;4761;49.490;10.908;2023-05-10T15:04:56;20.90;55.00
9446;DHT22;4761;49.490;10.908;2023-05-10T15:07:22;20.80;55.00
9446;DHT22;4761;49.490;10.908;2023-05-10T15:09:48;20.90;55.10
9446;DHT22;4761;49.490;10.908;2023-05-10T15:12:14;20.90;55.20
9446;DHT22;4761;49.490;10.908;2023-05-10T15:14:39;20.90;55.20
9446;DHT22;4761;49.490;10.908;2023-05-10T15:17:06;20.90;55.20
9446;DHT22;4761;49.490;10.908;2023-05-10T15:19:31;20.80;55.10
9446;DHT22;4761;49.490;10.908;2023-05-10T15:21:58;20.80;55.20
9446;DHT22;4761;49.490;10.908;2023-05-10T15:24:24;20.80;55.20
9446;DHT22;4761;49.490;10.908;2023-05-10T15:26:50;20.80;55.30
9446;DHT22;4761;49.490;10.908;2023-05-10T15:29:15;20.80;55.30
9446;DHT22;4761;49.490;10.908;2023-05-10T15:31:46;20.80;55.40
9446;DHT22;4761;49.490;10.908;2023-05-10T15:34:11;20.70;55.50
9446;DHT22;4761;49.490;10.908;2023-05-10T15:36:37;20.80;55.50
9446;DHT22;4761;49.490;10.908;2023-05-10T15:39:02;20.80;55.40
9446;DHT22;4761;49.490;10.908;2023-05-10T15:41:29;20.80;55.30
9446;DHT22;4761;49.490;10.908;2023-05-10T15:43:54;20.80;55.30
9446;DHT22;4761;49.490;10.908;2023-05-10T15:46:21;20.80;55.30
9446;DHT22;4761;49.490;10.908;2023-05-10T15:48:47;20.80;55.30
9446;DHT22;4761;49.490;10.908;2023-05-10T15:51:12;20.80;55.30
9446;DHT22;4761;49.490;10.908;2023-05-10T15:53:38;20.80;55.50
9446;DHT22;4761;49.490;10.908;2023-05-10T15:56:04;20.80;55.50
9446;DHT22;4761;49.490;10.908;2023-05-10T15:58:29;20.80;55.40
9446;DHT22;4761;49.490;10.908;2023-05-10T16:00:55;20.80;55.50
9446;DHT22;4761;49.490;10.908;2023-05-10T16:03:22;20.80;55.50
9446;DHT22;4761;49.490;10.908;2023-05-10T16:05:48;20.70;55.50